Time;durP1;ratioP1;P1;durP2;ratioP2;P2;SDS_P1;SDS_P2;PMS_P1;PMS_P2;Temp;Humidity;BMP_temperature;BMP_pressure;BME280_temperature;BME280_humidity;BME280_pressure;Samples;Min_cycle;Max_cycle;Signal;HPM_P1;HPM_P2
2022/01/01 14:44:25;;;;;;;2.35;1.30;;;;;;;15.05;70.88;101601.44;5085228;27;20402;-91
2022/01/01 14:46:54;;;;;;;2.22;1.20;;;;;;;16.30;62.41;101603.91;5008748;28;87035;-86
2022/01/01 14:49:36;;;;;;;3.15;1.30;;;;;;;17.24;60.11;101607.31;4983437;28;125983;-89
2022/01/01 14:52:12;;;;;;;2.00;1.33;;;;;;;18.01;63.09;101605.53;4711554;28;201527;-88
2022/01/01 18:08:06;;;;;;;2.72;1.20;;;;;;;4.95;78.14;101750.84;5103449;27;59894;-58
2022/01/01 18:10:42;;;;;;;2.45;1.10;;;;;;;4.95;78.50;101750.84;5060132;28;20404;-58
2022/01/01 18:13:14;;;;;;;3.38;1.63;;;;;;;4.92;77.89;101745.59;5060038;28;20051;-58
2022/01/01 18:15:44;;;;;;;4.38;1.58;;;;;;;4.90;78.34;101747.25;5057612;28;20052;-58
2022/01/01 18:18:18;;;;;;;3.70;1.73;;;;;;;4.87;78.82;101747.16;5066021;28;20075;-57
2022/01/01 18:20:47;;;;;;;3.90;1.67;;;;;;;4.87;78.69;101761.72;5070607;28;20068;-58
2022/01/01 18:23:16;;;;;;;2.88;0.93;;;;;;;4.84;78.48;101761.63;5075383;28;20550;-57
2022/01/01 18:25:51;;;;;;;5.20;1.17;;;;;;;4.84;78.61;101752.22;5069923;28;20064;-57
2022/01/01 18:28:24;;;;;;;2.28;1.20;;;;;;;4.85;78.78;101758.22;5071898;28;20052;-57
2022/01/01 18:30:56;;;;;;;2.17;1.23;;;;;;;4.86;79.06;101765.97;5071061;28;20052;-57
2022/01/01 18:33:24;;;;;;;2.45;1.20;;;;;;;4.86;79.29;101771.13;5073851;28;20044;-58
2022/01/01 18:35:54;;;;;;;2.60;1.20;;;;;;;4.90;79.35;101772.06;5072679;28;20074;-58
2022/01/01 18:38:26;;;;;;;4.25;1.67;;;;;;;4.91;79.20;101769.56;5080272;28;20052;-58
2022/01/01 18:40:55;;;;;;;3.80;2.00;;;;;;;4.92;79.73;101771.31;5073434;28;20044;-58
2022/01/01 18:43:25;;;;;;;5.82;1.98;;;;;;;4.92;80.00;101771.31;5074181;28;20041;-58
2022/01/01 18:45:53;;;;;;;3.80;2.30;;;;;;;4.93;80.23;101778.19;5074104;28;20464;-59
2022/01/01 18:48:21;;;;;;;4.45;2.90;;;;;;;4.93;80.24;101773.03;5077440;28;20048;-58
2022/01/01 18:51:03;;;;;;;3.22;2.20;;;;;;;4.91;80.38;101758.41;5071699;28;20508;-58
2022/01/01 18:53:38;;;;;;;3.47;1.77;;;;;;;4.90;80.18;101765.25;5075189;28;20048;-58
2022/01/01 18:56:11;;;;;;;3.63;1.67;;;;;;;4.90;80.47;101762.66;5077051;28;20060;-58
2022/01/01 18:58:50;;;;;;;2.50;1.70;;;;;;;4.90;79.94;101762.66;5082598;28;20048;-59
2022/01/01 19:01:29;;;;;;;2.67;1.60;;;;;;;4.90;80.56;101770.38;5069721;28;20131;-58
2022/01/01 19:03:58;;;;;;;4.93;2.22;;;;;;;4.90;80.42;101762.66;5070482;28;20059;-58
2022/01/01 19:06:40;;;;;;;9.40;3.70;;;;;;;4.88;79.83;101766.88;5080422;28;20048;-58
2022/01/01 19:09:40;;;;;;;13.50;4.82;;;;;;;4.86;79.01;101778.81;5062526;28;20049;-58
2022/01/01 19:12:22;;;;;;;21.50;9.90;;;;;;;4.85;79.55;101787.34;5072192;28;20900;-58
2022/01/01 19:15:08;;;;;;;19.08;8.95;;;;;;;4.85;79.93;101779.66;5080206;28;20094;-58
2022/01/01 19:17:44;;;;;;;11.85;5.63;;;;;;;4.85;80.11;101784.78;5064768;28;20045;-58
2022/01/01 19:20:16;;;;;;;10.95;5.82;;;;;;;4.83;79.37;101786.44;5051455;28;20048;-57
2022/01/01 19:22:49;;;;;;;13.35;5.68;;;;;;;4.81;80.09;101792.34;5058891;28;20053;-57
2022/01/01 19:25:22;;;;;;;11.95;7.05;;;;;;;4.79;79.65;101800.00;5054390;28;20041;-57
2022/01/01 19:27:50;;;;;;;15.35;7.70;;;;;;;4.77;79.99;101796.50;5049619;28;20048;-57
2022/01/01 19:30:28;;;;;;;12.07;6.35;;;;;;;4.77;80.31;101781.09;5058575;28;20049;-58
2022/01/01 19:33:07;;;;;;;13.40;6.28;;;;;;;4.73;79.85;101774.13;5051375;28;20127;-58
2022/01/01 19:35:35;;;;;;;12.85;6.43;;;;;;;4.73;80.03;101779.25;5053461;28;20449;-57
2022/01/01 19:38:11;;;;;;;13.13;6.55;;;;;;;4.72;80.86;101783.53;5052598;28;20406;-58
2022/01/01 19:40:57;;;;;;;14.73;6.55;;;;;;;4.72;81.31;101788.66;5050474;28;20126;-57
2022/01/01 19:43:33;;;;;;;12.63;6.43;;;;;;;4.73;81.21;101782.69;5052566;28;20060;-57
2022/01/01 19:46:05;;;;;;;13.82;6.18;;;;;;;4.75;81.84;101787.88;5052790;28;20045;-58
2022/01/01 19:48:41;;;;;;;17.60;8.35;;;;;;;4.77;81.97;101791.38;5060146;28;20053;-57
2022/01/01 19:51:14;;;;;;;;;;;;;;;4.75;81.27;101793.03;5052971;28;20053;-58
2022/01/01 19:53:48;;;;;;;16.45;8.60;;;;;;;4.75;82.09;101795.59;5050552;28;20491;-57
2022/01/01 19:56:19;;;;;;;20.80;10.55;;;;;;;4.76;82.16;101794.78;5060057;28;20059;-57
2022/01/01 19:58:47;;;;;;;29.92;17.02;;;;;;;4.77;82.06;101795.63;5058057;28;20048;-57
2022/01/01 20:01:22;;;;;;;24.45;13.70;;;;;;;4.76;81.79;101792.19;5059003;28;20041;-57
2022/01/01 20:03:53;;;;;;;21.67;12.38;;;;;;;4.70;81.94;101787.75;5054532;28;20041;-57
2022/01/01 20:06:20;;;;;;;13.38;7.60;;;;;;;4.68;81.92;101785.91;5055817;28;20117;-57
2022/01/01 20:08:51;;;;;;;15.80;8.60;;;;;;;4.68;82.09;101778.22;5054118;28;20328;-57
2022/01/01 20:11:20;;;;;;;10.27;6.07;;;;;;;4.65;81.96;101775.53;5039362;28;20064;-57
2022/01/01 20:13:47;;;;;;;9.85;4.85;;;;;;;4.56;81.60;101765.84;5034905;28;20045;-57
2022/01/01 20:16:17;;;;;;;7.50;4.57;;;;;;;4.46;81.15;101765.50;5038040;28;20271;-57
2022/01/01 20:18:45;;;;;;;7.57;4.13;;;;;;;4.37;81.46;101764.38;5041347;28;20451;-58
2022/01/01 20:21:13;;;;;;;12.55;5.20;;;;;;;4.32;82.20;101765.94;5050712;28;20412;-57
2022/01/01 20:23:40;;;;;;;14.57;7.32;;;;;;;4.28;82.70;101766.66;5052296;28;20118;-58
2022/01/01 20:26:07;;;;;;;21.90;9.30;;;;;;;4.28;82.45;101769.22;5051254;28;20056;-58
2022/01/01 20:28:36;;;;;;;22.52;10.45;;;;;;;4.28;83.05;101788.88;5050717;28;20063;-57
2022/01/01 20:31:03;;;;;;;23.27;11.80;;;;;;;4.27;83.32;101782.00;5050015;28;22881;-57
2022/01/01 20:33:30;;;;;;;24.98;13.07;;;;;;;4.28;82.91;101788.88;5050041;28;20477;-57
2022/01/01 20:35:58;;;;;;;28.52;13.95;;;;;;;4.29;83.19;101786.34;5046991;28;20060;-58
2022/01/01 20:38:25;;;;;;;42.25;20.13;;;;;;;4.30;83.53;101782.97;5048628;28;20049;-57
2022/01/01 20:40:53;;;;;;;36.80;17.25;;;;;;;4.29;83.71;101782.91;5054865;28;20041;-57
2022/01/01 20:43:20;;;;;;;37.47;18.05;;;;;;;4.30;83.41;101785.53;5056839;28;20099;-58
2022/01/01 20:45:48;;;;;;;41.22;18.48;;;;;;;4.32;83.54;101783.91;5057202;28;20045;-57
2022/01/01 20:48:15;;;;;;;35.05;18.50;;;;;;;4.35;83.42;101786.56;5050333;28;20052;-58
2022/01/01 20:50:44;;;;;;;36.10;15.82;;;;;;;4.36;82.95;101783.19;5047840;28;20040;-58
2022/01/01 20:53:11;;;;;;;31.67;13.85;;;;;;;4.37;82.87;101782.34;5050285;28;20040;-58
2022/01/01 20:55:39;;;;;;;28.67;14.82;;;;;;;4.38;82.74;101785.78;5050402;28;20799;-58
2022/01/01 20:58:06;;;;;;;29.65;15.05;;;;;;;4.38;82.49;101785.78;5054023;28;20146;-58
2022/01/01 21:00:33;;;;;;;33.70;15.48;;;;;;;4.32;81.77;101780.47;5051350;28;20055;-58
2022/01/01 21:03:13;;;;;;;30.25;13.30;;;;;;;4.25;82.08;101781.94;5053633;28;20489;-57
2022/01/01 21:05:48;;;;;;;20.27;10.48;;;;;;;4.20;82.22;101775.78;5055924;28;20057;-58
2022/01/01 21:08:17;;;;;;;22.83;11.10;;;;;;;4.17;82.32;101770.56;5055017;28;20041;-58
2022/01/01 21:10:47;;;;;;;26.85;12.55;;;;;;;4.16;82.57;101773.03;5056289;28;20044;-57
2022/01/01 21:13:17;;;;;;;34.58;17.80;;;;;;;4.17;82.69;101775.69;5051455;28;20041;-58
2022/01/01 21:15:44;;;;;;;21.55;11.50;;;;;;;4.18;82.38;101767.16;5052507;28;20504;-57
2022/01/01 21:18:13;;;;;;;20.65;10.73;;;;;;;4.13;82.29;101758.41;5053448;28;20095;-57
2022/01/01 21:20:41;;;;;;;21.45;10.80;;;;;;;4.11;82.71;101754.91;5057358;28;20052;-58
2022/01/01 21:23:08;;;;;;;20.55;11.18;;;;;;;4.09;82.50;101752.28;5063165;28;20041;-57
2022/01/01 21:25:37;;;;;;;17.75;9.60;;;;;;;4.05;82.32;101759.84;5053287;28;20053;-58
2022/01/01 21:28:04;;;;;;;14.75;8.90;;;;;;;4.04;82.31;101758.09;5054811;28;20044;-58
2022/01/01 21:30:33;;;;;;;16.10;8.80;;;;;;;4.00;82.71;101761.38;5062180;28;20436;-57
2022/01/01 21:33:00;;;;;;;16.98;9.45;;;;;;;3.96;82.97;101759.53;5059120;28;20052;-57
2022/01/01 21:35:29;;;;;;;17.58;8.90;;;;;;;3.95;83.63;101752.66;5050918;28;20056;-58
2022/01/01 21:37:56;;;;;;;19.70;9.73;;;;;;;3.91;83.59;101750.81;5058275;28;20681;-57
2022/01/01 21:40:23;;;;;;;16.15;9.68;;;;;;;3.88;83.43;101745.56;5057975;28;20060;-58
2022/01/01 21:42:51;;;;;;;21.42;10.25;;;;;;;3.86;83.15;101742.06;5057390;28;20056;-58
2022/01/01 21:45:18;;;;;;;21.55;11.43;;;;;;;3.86;83.71;101747.22;5057549;28;20090;-58
2022/01/01 21:47:45;;;;;;;20.40;10.48;;;;;;;3.83;83.23;101752.22;5057211;28;20056;-58
2022/01/01 21:50:12;;;;;;;21.40;11.05;;;;;;;3.82;83.86;101751.34;5056189;28;20652;-57
2022/01/01 21:52:44;;;;;;;18.83;9.40;;;;;;;3.79;84.27;101747.00;5049398;28;20504;-57
2022/01/01 21:55:12;;;;;;;171.98;88.32;;;;;;;3.79;84.25;101746.13;5052376;28;20388;-57
2022/01/01 21:57:39;;;;;;;113.68;61.88;;;;;;;3.77;84.28;101748.63;5048029;28;20535;-57
2022/01/01 22:00:07;;;;;;;51.28;28.63;;;;;;;3.79;83.63;101746.13;5051643;28;20049;-58
2022/01/01 22:02:35;;;;;;;29.00;14.93;;;;;;;3.79;83.98;101741.88;5052680;28;20058;-57
2022/01/01 22:05:03;;;;;;;36.38;18.17;;;;;;;3.75;84.22;101734.88;5050557;28;20057;-57
2022/01/01 22:07:30;;;;;;;38.97;21.17;;;;;;;3.76;84.48;101734.06;5051600;28;20053;-57
2022/01/01 22:09:59;;;;;;;28.42;14.55;;;;;;;3.76;84.65;101731.50;5052828;28;20110;-57
2022/01/01 22:12:26;;;;;;;18.17;9.45;;;;;;;3.77;84.11;101734.94;5061598;28;20136;-58
2022/01/01 22:14:53;;;;;;;35.50;18.75;;;;;;;3.75;84.45;101724.63;5057791;28;20040;-57
2022/01/01 22:17:20;;;;;;;17.73;9.25;;;;;;;3.76;83.69;101725.50;5059711;28;20041;-57
2022/01/01 22:19:48;;;;;;;25.08;13.63;;;;;;;3.75;83.78;101724.63;5059788;28;20489;-57
2022/01/01 22:22:15;;;;;;;21.02;11.90;;;;;;;3.74;84.16;101712.63;5058824;28;20519;-57
2022/01/01 22:24:44;;;;;;;21.50;11.13;;;;;;;3.72;83.56;101714.25;5056425;28;20056;-57
2022/01/01 22:27:12;;;;;;;19.83;11.13;;;;;;;3.73;84.45;101715.13;5063853;28;20060;-58
2022/01/01 22:29:39;;;;;;;17.25;9.40;;;;;;;3.72;83.71;101708.25;5049277;28;20059;-58
2022/01/01 22:32:08;;;;;;;19.30;9.10;;;;;;;3.72;84.24;101714.25;5051338;28;20080;-57
2022/01/01 22:34:35;;;;;;;22.30;11.65;;;;;;;3.71;84.35;101709.94;5052462;28;20044;-57
2022/01/01 22:37:04;;;;;;;17.05;9.20;;;;;;;3.69;84.06;101714.16;5054481;28;20047;-58
2022/01/01 22:39:31;;;;;;;14.90;8.52;;;;;;;3.66;84.03;101716.59;5058820;28;20405;-58
2022/01/01 22:41:59;;;;;;;18.60;10.10;;;;;;;3.67;84.58;101702.09;5052411;28;20094;-57
2022/01/01 22:44:27;;;;;;;20.08;10.70;;;;;;;3.68;84.78;101702.16;5064136;28;20041;-57
2022/01/01 22:46:55;;;;;;;14.98;8.90;;;;;;;3.68;84.69;101707.28;5058225;28;20664;-58
2022/01/01 22:49:23;;;;;;;18.23;9.13;;;;;;;3.67;84.51;101695.28;5053695;28;20044;-57
2022/01/01 22:51:51;;;;;;;19.13;10.45;;;;;;;3.69;85.12;101670.56;5057017;28;20052;-58
2022/01/01 22:54:18;;;;;;;15.10;7.25;;;;;;;3.66;84.44;101652.50;5054712;28;20413;-58
2022/01/01 22:56:46;;;;;;;17.52;9.82;;;;;;;3.66;84.75;101649.94;5067808;28;20114;-57
2022/01/01 22:59:13;;;;;;;16.98;9.85;;;;;;;3.68;84.93;101661.13;5055058;28;20044;-58
2022/01/01 23:01:42;;;;;;;20.08;10.02;;;;;;;3.67;84.90;101658.50;5061907;28;20083;-58
2022/01/01 23:04:09;;;;;;;20.67;10.90;;;;;;;3.66;84.27;101660.19;5054394;28;20045;-58
2022/01/01 23:06:37;;;;;;;14.85;7.45;;;;;;;3.68;85.00;101657.69;5057420;28;20069;-58
2022/01/01 23:09:05;;;;;;;14.63;7.03;;;;;;;3.66;85.04;101647.38;5058842;28;20041;-57
2022/01/01 23:11:32;;;;;;;14.55;8.07;;;;;;;3.63;85.12;101649.81;5059497;28;20397;-58
2022/01/01 23:13:59;;;;;;;15.65;7.90;;;;;;;3.64;85.12;101648.13;5053980;28;20474;-57
2022/01/01 23:16:30;;;;;;;12.77;7.78;;;;;;;3.60;85.25;101636.88;5055056;28;20059;-57
2022/01/01 23:19:01;;;;;;;11.68;6.07;;;;;;;3.56;85.20;101640.16;5065530;28;20049;-57
2022/01/01 23:21:31;;;;;;;14.25;6.45;;;;;;;3.52;86.15;101635.75;5058475;28;20045;-58
2022/01/01 23:23:59;;;;;;;15.70;7.95;;;;;;;3.52;86.37;101640.88;5058664;28;20052;-58
2022/01/01 23:26:29;;;;;;;12.98;6.93;;;;;;;3.50;86.05;101647.66;5061965;28;20048;-58
2022/01/01 23:29:02;;;;;;;11.98;5.97;;;;;;;3.49;85.91;101636.53;5054537;28;20520;-57
2022/01/01 23:31:32;;;;;;;15.35;7.25;;;;;;;3.50;86.06;101624.56;5060840;28;20040;-57
2022/01/01 23:34:06;;;;;;;14.73;7.82;;;;;;;3.50;86.26;101622.00;5058255;28;20131;-56
2022/01/01 23:36:35;;;;;;;15.32;7.47;;;;;;;3.51;86.97;101621.19;5058536;28;20057;-57
2022/01/01 23:39:07;;;;;;;12.80;6.35;;;;;;;3.53;86.47;101614.44;5056407;28;20040;-57
2022/01/01 23:41:35;;;;;;;11.75;6.60;;;;;;;3.51;86.93;101605.81;5065305;28;20508;-57
2022/01/01 23:44:04;;;;;;;16.13;7.95;;;;;;;3.52;86.51;101591.31;5062318;28;20040;-58
2022/01/01 23:46:32;;;;;;;16.60;8.27;;;;;;;3.50;86.82;101588.69;5054692;28;20080;-57
2022/01/01 23:49:01;;;;;;;10.73;5.63;;;;;;;3.49;87.27;101569.88;5054457;28;20045;-57
2022/01/01 23:51:33;;;;;;;9.25;5.00;;;;;;;3.48;87.52;101555.31;5056721;28;20060;-57
2022/01/01 23:54:02;;;;;;;11.40;5.57;;;;;;;3.43;87.28;101554.28;5062072;28;20052;-57
2022/01/01 23:56:40;;;;;;;10.63;4.78;;;;;;;3.42;87.51;101552.53;5056972;28;20075;-57
2022/01/01 23:59:21;;;;;;;10.50;4.63;;;;;;;3.41;87.98;101553.38;5055012;28;20067;-57
